EGSS - Stansted Airport
Distance from station: E 5mi, 14km
Updated: 10/17/2017 10:20pm
Overcast
Overcast
 Wind from NE
Wind: NE 8 mph , 13 km/h
Temperature: 50°F , 10°C
Wind Chill: 47°F , 8°C
Dew Point: 48°F , 9°C
Humidity: 94%
Barometer: 29.91 inHg , 1013 hPa
Clouds: Overcast
Visibility: 6 miles , 10 km
Cloud details: Overcast 2200 ft
2017/10/18 05:20 EGSS 180520Z AUTO 05007KT 9999 OVC022 10/09 Q1013